createdAt,value
2019-04-07T00:01:14.577Z,10.13
2019-04-07T00:03:45.470Z,10.13
2019-04-07T00:06:15.980Z,10.11
2019-04-07T00:08:46.639Z,10.12
2019-04-07T00:11:17.495Z,10.10
2019-04-07T00:13:48.374Z,10.14
2019-04-07T00:16:18.952Z,10.13
2019-04-07T00:18:49.600Z,10.15
2019-04-07T00:21:20.770Z,10.11
2019-04-07T00:23:51.444Z,10.15
2019-04-07T00:26:22.551Z,10.19
2019-04-07T00:28:53.466Z,10.17
2019-04-07T00:31:24.027Z,10.16
2019-04-07T00:33:54.654Z,10.17
2019-04-07T00:36:26.612Z,10.19
2019-04-07T00:38:58.388Z,10.21
2019-04-07T00:41:28.962Z,10.21
2019-04-07T00:44:00.002Z,10.21
2019-04-07T00:46:30.821Z,10.17
2019-04-07T00:49:01.396Z,10.16
2019-04-07T00:51:32.056Z,10.15
2019-04-07T00:54:02.755Z,10.17
2019-04-07T00:56:33.669Z,10.16
2019-04-07T00:59:10.024Z,10.16
2019-04-07T01:01:39.926Z,10.13
2019-04-07T01:04:11.100Z,10.14
2019-04-07T01:06:42.203Z,10.15
2019-04-07T01:09:13.360Z,10.15
2019-04-07T01:11:44.265Z,10.17
2019-04-07T01:14:18.069Z,10.17
2019-04-07T01:16:48.968Z,10.17
2019-04-07T01:19:20.021Z,10.20
2019-04-07T01:21:51.159Z,10.18
2019-04-07T01:24:22.627Z,10.15
2019-04-07T01:26:53.767Z,10.15
2019-04-07T01:29:24.504Z,10.15
2019-04-07T01:31:55.051Z,10.10
2019-04-07T01:34:26.234Z,10.08
2019-04-07T01:36:56.935Z,10.11
2019-04-07T01:39:29.579Z,10.14
2019-04-07T01:42:22.179Z,10.13
2019-04-07T01:45:10.515Z,10.09
2019-04-07T01:47:54.094Z,10.05
2019-04-07T01:50:33.091Z,10.04
2019-04-07T01:53:28.998Z,10.03
2019-04-07T01:56:08.369Z,10.05
2019-04-07T01:58:48.349Z,10.03
2019-04-07T02:01:58.229Z,10.02
2019-04-07T02:04:56.517Z,10.01
2019-04-07T02:07:34.015Z,10.01
2019-04-07T02:10:34.086Z,9.97
2019-04-07T02:13:25.305Z,9.99
2019-04-07T02:16:04.947Z,9.99
2019-04-07T02:18:54.411Z,10.00
2019-04-07T02:21:32.770Z,10.00
2019-04-07T02:24:12.867Z,10.03
2019-04-07T02:26:48.883Z,10.01
2019-04-07T02:29:29.160Z,9.99
2019-04-07T02:32:16.069Z,9.99
2019-04-07T02:34:59.921Z,9.99
2019-04-07T02:37:37.207Z,9.98
2019-04-07T02:40:28.453Z,9.94
2019-04-07T02:43:21.580Z,9.97
2019-04-07T02:46:09.678Z,9.95
2019-04-07T02:48:59.185Z,9.94
2019-04-07T02:51:47.828Z,9.94
2019-04-07T02:54:37.946Z,9.94
2019-04-07T02:57:30.276Z,9.95
2019-04-07T03:00:29.672Z,9.93
2019-04-07T03:03:16.942Z,9.97
2019-04-07T03:06:06.937Z,9.96
2019-04-07T03:08:45.391Z,9.96
2019-04-07T03:11:44.594Z,9.98
2019-04-07T03:14:26.193Z,9.98
2019-04-07T03:17:16.011Z,9.98
2019-04-07T03:19:56.156Z,9.97
2019-04-07T03:22:45.872Z,9.93
2019-04-07T03:25:34.352Z,9.90
2019-04-07T03:28:39.923Z,9.90
2019-04-07T03:31:32.801Z,9.86
2019-04-07T03:34:20.409Z,9.86
2019-04-07T03:37:21.812Z,9.87
2019-04-07T03:40:00.807Z,9.84
2019-04-07T03:43:05.406Z,9.80
2019-04-07T03:45:55.074Z,9.68
2019-04-07T03:48:38.029Z,9.66
2019-04-07T03:51:26.564Z,9.64
2019-04-07T03:54:15.450Z,9.59
2019-04-07T03:57:16.438Z,9.53
2019-04-07T03:59:58.162Z,9.45
2019-04-07T04:02:53.554Z,9.41
2019-04-07T04:05:45.145Z,9.36
2019-04-07T04:08:38.245Z,9.29
2019-04-07T04:11:21.136Z,9.22
2019-04-07T04:14:29.531Z,9.21
2019-04-07T04:17:00.228Z,9.17
2019-04-07T04:19:30.802Z,9.13
2019-04-07T04:22:02.083Z,9.11
2019-04-07T04:24:33.618Z,9.07
2019-04-07T04:27:04.628Z,9.09
2019-04-07T04:29:35.307Z,9.06
2019-04-07T04:32:06.035Z,9.06
2019-04-07T04:34:36.828Z,9.00
2019-04-07T04:37:08.039Z,9.00
2019-04-07T04:39:38.891Z,8.99
2019-04-07T04:42:09.405Z,8.97
2019-04-07T04:44:40.544Z,8.98
2019-04-07T04:47:11.174Z,8.99
2019-04-07T04:49:41.844Z,9.02
2019-04-07T04:52:12.417Z,9.06
2019-04-07T04:54:42.989Z,9.08
2019-04-07T04:57:14.312Z,9.04
2019-04-07T04:59:45.066Z,9.04
2019-04-07T05:02:15.996Z,9.08
2019-04-07T05:04:47.112Z,9.11
2019-04-07T05:07:17.709Z,9.16
2019-04-07T05:09:53.281Z,9.17
2019-04-07T05:12:24.350Z,9.18
2019-04-07T05:14:55.060Z,9.21
2019-04-07T05:17:26.055Z,9.23
2019-04-07T05:19:57.657Z,9.24
2019-04-07T05:22:29.027Z,9.22
2019-04-07T05:24:59.701Z,9.24
2019-04-07T05:27:30.324Z,9.25
2019-04-07T05:30:01.301Z,9.29
2019-04-07T05:32:32.182Z,9.29
2019-04-07T05:35:04.421Z,9.29
2019-04-07T05:37:34.936Z,9.30
2019-04-07T05:40:06.009Z,9.30
2019-04-07T05:42:36.587Z,9.32
2019-04-07T05:45:08.259Z,9.33
2019-04-07T05:47:43.619Z,9.37
2019-04-07T05:50:11.310Z,9.40
2019-04-07T05:52:42.203Z,9.41
2019-04-07T05:55:13.181Z,9.43
2019-04-07T05:57:44.214Z,9.46
2019-04-07T06:00:16.724Z,9.47
2019-04-07T06:02:48.205Z,9.50
2019-04-07T06:05:19.507Z,9.55
2019-04-07T06:07:52.631Z,9.58
2019-04-07T06:10:27.624Z,9.61
2019-04-07T06:12:56.442Z,9.64
2019-04-07T06:15:27.358Z,9.67
2019-04-07T06:18:00.556Z,9.71
2019-04-07T06:20:30.315Z,9.74
2019-04-07T06:23:01.934Z,9.79
2019-04-07T06:25:37.831Z,9.83
2019-04-07T06:28:05.463Z,9.87
2019-04-07T06:30:36.975Z,9.92
2019-04-07T06:33:08.905Z,9.96
2019-04-07T06:35:41.859Z,9.98
2019-04-07T06:38:14.420Z,10.01
2019-04-07T06:40:45.923Z,10.04
2019-04-07T06:43:17.031Z,10.05
2019-04-07T06:46:10.615Z,10.07
2019-04-07T06:49:00.661Z,10.09
2019-04-07T06:51:53.266Z,10.13
2019-04-07T06:54:46.025Z,10.17
2019-04-07T06:57:49.176Z,10.23
2019-04-07T07:00:38.847Z,10.26
2019-04-07T07:03:46.626Z,10.31
2019-04-07T07:06:34.774Z,10.37
2019-04-07T07:09:19.194Z,10.42
2019-04-07T07:12:19.191Z,10.46
2019-04-07T07:15:04.316Z,10.52
2019-04-07T07:17:48.619Z,10.58
2019-04-07T07:20:58.056Z,10.63
2019-04-07T07:23:32.250Z,10.68
2019-04-07T07:26:03.518Z,10.75
2019-04-07T07:28:34.882Z,10.80
2019-04-07T07:31:05.514Z,10.85
2019-04-07T07:33:38.389Z,10.91
2019-04-07T07:36:12.252Z,10.96
2019-04-07T07:38:55.428Z,10.97
2019-04-07T07:41:19.209Z,11.02
2019-04-07T07:43:48.192Z,11.05
2019-04-07T07:46:21.857Z,11.06
2019-04-07T07:48:56.157Z,11.09
2019-04-07T07:51:24.805Z,11.14
2019-04-07T07:53:58.580Z,11.20
2019-04-07T07:56:29.090Z,11.24
2019-04-07T07:59:01.493Z,11.30
2019-04-07T08:01:32.245Z,11.34
2019-04-07T08:04:03.569Z,11.39
2019-04-07T08:06:34.665Z,11.43
2019-04-07T08:09:13.805Z,11.49
2019-04-07T08:11:42.407Z,11.53
2019-04-07T08:14:16.610Z,11.55
2019-04-07T08:16:45.583Z,11.59
2019-04-07T08:19:16.781Z,11.65
2019-04-07T08:21:50.302Z,11.67
2019-04-07T08:24:21.829Z,11.69
2019-04-07T08:26:56.307Z,11.75
2019-04-07T08:29:24.791Z,11.78
2019-04-07T08:31:55.538Z,11.82
2019-04-07T08:34:26.529Z,11.85
2019-04-07T08:36:57.479Z,11.88
2019-04-07T08:39:32.347Z,11.91
2019-04-07T08:42:01.143Z,11.95
2019-04-07T08:44:31.931Z,11.99
2019-04-07T08:47:02.658Z,12.07
2019-04-07T08:49:34.532Z,12.10
2019-04-07T08:52:09.069Z,12.15
2019-04-07T08:54:38.007Z,12.18
2019-04-07T08:57:09.604Z,12.20
2019-04-07T08:59:42.375Z,12.27
2019-04-07T09:02:12.538Z,12.33
2019-04-07T09:04:47.319Z,12.36
2019-04-07T09:07:15.533Z,12.40
2019-04-07T09:09:47.812Z,12.46
2019-04-07T09:12:18.693Z,12.51
2019-04-07T09:14:50.195Z,12.53
2019-04-07T09:17:44.597Z,12.57
2019-04-07T09:20:29.336Z,12.63
2019-04-07T09:23:09.188Z,12.67
2019-04-07T09:25:57.354Z,12.71
2019-04-07T09:28:39.449Z,12.72
2019-04-07T09:31:41.055Z,12.77
2019-04-07T09:34:30.559Z,12.80
2019-04-07T09:37:08.085Z,12.86
2019-04-07T09:40:10.436Z,12.88
2019-04-07T09:43:00.996Z,12.89
2019-04-07T09:45:59.472Z,12.93
2019-04-07T09:48:50.940Z,12.98
2019-04-07T09:51:40.378Z,13.02
2019-04-07T09:54:44.436Z,13.05
2019-04-07T09:57:38.724Z,13.12
2019-04-07T10:00:23.237Z,13.16
2019-04-07T10:03:24.791Z,13.23
2019-04-07T10:06:23.097Z,13.29
2019-04-07T10:09:15.795Z,13.32
2019-04-07T10:11:53.014Z,13.37
2019-04-07T10:14:42.861Z,13.44
2019-04-07T10:17:35.426Z,13.48
2019-04-07T10:20:28.653Z,13.52
2019-04-07T10:23:18.102Z,13.57
2019-04-07T10:26:01.265Z,13.65
2019-04-07T10:28:40.066Z,13.65
2019-04-07T10:31:26.000Z,13.71
2019-04-07T10:34:18.667Z,13.75
2019-04-07T10:37:04.946Z,13.83
2019-04-07T10:39:57.371Z,13.91
2019-04-07T10:42:46.019Z,13.95
2019-04-07T10:45:35.072Z,13.98
2019-04-07T10:48:24.366Z,14.01
2019-04-07T10:51:01.958Z,14.09
2019-04-07T10:53:37.915Z,14.13
2019-04-07T10:56:22.324Z,14.21
2019-04-07T10:59:18.812Z,14.24
2019-04-07T11:02:11.933Z,14.27
2019-04-07T11:05:00.647Z,14.33
2019-04-07T11:07:42.006Z,14.38
2019-04-07T11:10:37.328Z,14.44
2019-04-07T11:13:19.974Z,14.52
2019-04-07T11:16:13.331Z,14.66
2019-04-07T11:19:01.979Z,14.73
2019-04-07T11:22:04.556Z,14.85
2019-04-07T11:24:44.399Z,14.97
2019-04-07T11:27:32.942Z,15.06
2019-04-07T11:30:22.509Z,15.13
2019-04-07T11:33:20.926Z,15.21
2019-04-07T11:36:06.023Z,15.26
2019-04-07T11:38:51.645Z,15.31
2019-04-07T11:41:48.265Z,15.37
2019-04-07T11:44:41.131Z,15.39
2019-04-07T11:47:24.023Z,15.41
2019-04-07T11:50:14.563Z,15.47
2019-04-07T11:53:12.341Z,15.52
2019-04-07T11:56:13.977Z,15.58
2019-04-07T11:59:00.686Z,15.60
2019-04-07T12:01:50.979Z,15.63
2019-04-07T12:04:46.890Z,15.70
2019-04-07T12:07:36.693Z,15.73
2019-04-07T12:10:25.770Z,15.78
2019-04-07T12:13:22.083Z,15.81
2019-04-07T12:16:18.461Z,15.85
2019-04-07T12:19:02.372Z,15.91
2019-04-07T12:21:55.911Z,15.97
2019-04-07T12:24:36.159Z,16.03
2019-04-07T12:27:35.717Z,16.02
2019-04-07T12:30:25.237Z,16.10
2019-04-07T12:33:18.000Z,16.08
2019-04-07T12:36:14.069Z,16.10
2019-04-07T12:39:07.195Z,16.19
2019-04-07T12:41:59.555Z,16.24
2019-04-07T12:44:38.386Z,16.28
2019-04-07T12:47:18.170Z,16.28
2019-04-07T12:50:17.402Z,16.25
2019-04-07T12:53:16.582Z,16.22
2019-04-07T12:55:57.957Z,16.14
2019-04-07T12:58:48.539Z,16.09
2019-04-07T13:01:56.446Z,16.10
2019-04-07T13:04:36.461Z,16.06
2019-04-07T13:07:29.078Z,16.04
2019-04-07T13:10:10.541Z,16.02
2019-04-07T13:13:09.097Z,16.00
2019-04-07T13:15:50.962Z,15.96
2019-04-07T13:18:39.488Z,15.97
2019-04-07T13:21:32.992Z,15.93
2019-04-07T13:24:30.235Z,15.96
2019-04-07T13:26:59.905Z,15.96
2019-04-07T13:29:56.736Z,15.96
2019-04-07T13:32:43.849Z,16.02
2019-04-07T13:35:34.714Z,16.04
2019-04-07T13:38:20.802Z,16.06
2019-04-07T13:41:10.454Z,16.13
2019-04-07T13:44:07.146Z,16.22
2019-04-07T13:46:46.885Z,16.30
2019-04-07T13:49:29.013Z,16.53
2019-04-07T13:52:24.667Z,17.02
2019-04-07T13:55:05.158Z,17.40
2019-04-07T13:57:59.489Z,17.90
2019-04-07T14:00:55.805Z,18.34
2019-04-07T14:03:48.132Z,18.56
2019-04-07T14:06:37.321Z,18.53
2019-04-07T14:09:31.460Z,18.43
2019-04-07T14:12:23.874Z,18.18
2019-04-07T14:15:01.895Z,17.99
2019-04-07T14:17:43.813Z,17.83
2019-04-07T14:20:24.715Z,17.74
2019-04-07T14:23:02.136Z,17.59
2019-04-07T14:25:52.737Z,17.46
2019-04-07T14:28:45.706Z,17.37
2019-04-07T14:31:33.610Z,17.31
2019-04-07T14:34:38.056Z,17.25
2019-04-07T14:37:30.812Z,17.22
2019-04-07T14:40:25.808Z,17.23
2019-04-07T14:43:13.643Z,17.15
2019-04-07T14:45:50.402Z,17.07
2019-04-07T14:48:37.665Z,16.91
2019-04-07T14:51:25.822Z,16.79
2019-04-07T14:54:14.004Z,16.69
2019-04-07T14:57:03.212Z,16.60
2019-04-07T15:00:05.323Z,16.54
2019-04-07T15:02:36.525Z,16.47
2019-04-07T15:05:15.964Z,16.35
2019-04-07T15:07:57.875Z,16.32
2019-04-07T15:10:39.784Z,16.37
2019-04-07T15:13:15.980Z,16.38
2019-04-07T15:15:45.748Z,16.36
2019-04-07T15:18:16.519Z,16.40
2019-04-07T15:20:47.340Z,16.52
2019-04-07T15:23:18.681Z,16.59
2019-04-07T15:25:50.337Z,16.68
2019-04-07T15:28:21.534Z,16.75
2019-04-07T15:30:52.998Z,16.85
2019-04-07T15:33:24.259Z,16.89
2019-04-07T15:35:54.895Z,16.98
2019-04-07T15:38:27.196Z,17.01
2019-04-07T15:40:59.808Z,17.00
2019-04-07T15:43:33.301Z,16.93
2019-04-07T15:46:03.300Z,16.91
2019-04-07T15:48:34.071Z,16.82
2019-04-07T15:51:05.130Z,16.75
2019-04-07T15:53:40.352Z,16.74
2019-04-07T15:56:12.975Z,16.62
2019-04-07T15:58:42.644Z,16.70
2019-04-07T16:01:16.092Z,16.76
2019-04-07T16:03:50.496Z,16.77
2019-04-07T16:06:19.538Z,16.82
2019-04-07T16:08:51.131Z,16.86
2019-04-07T16:11:25.668Z,16.93
2019-04-07T16:13:55.167Z,16.95
2019-04-07T16:16:28.478Z,16.97
2019-04-07T16:18:58.141Z,16.98
2019-04-07T16:21:30.460Z,16.97
2019-04-07T16:24:01.134Z,16.95
2019-04-07T16:26:35.876Z,16.91
2019-04-07T16:29:08.134Z,16.90
2019-04-07T16:31:39.055Z,16.82
2019-04-07T16:34:11.550Z,16.76
2019-04-07T16:36:42.147Z,16.66
2019-04-07T16:39:13.633Z,16.62
2019-04-07T16:41:45.881Z,16.55
2019-04-07T16:44:17.021Z,16.56
2019-04-07T16:46:47.638Z,16.47
2019-04-07T16:49:19.377Z,16.45
2019-04-07T16:51:51.455Z,16.40
2019-04-07T16:54:22.174Z,16.36
2019-04-07T16:56:56.134Z,16.26
2019-04-07T16:59:25.363Z,16.18
2019-04-07T17:01:57.000Z,16.09
2019-04-07T17:04:28.653Z,16.06
2019-04-07T17:07:04.100Z,16.03
2019-04-07T17:09:34.103Z,15.97
2019-04-07T17:12:04.023Z,15.91
2019-04-07T17:14:36.129Z,15.84
2019-04-07T17:17:07.040Z,15.73
2019-04-07T17:19:40.461Z,15.65
2019-04-07T17:22:16.029Z,15.58
2019-04-07T17:24:47.828Z,15.51
2019-04-07T17:27:26.056Z,15.48
2019-04-07T17:29:56.867Z,15.45
2019-04-07T17:32:28.502Z,15.35
2019-04-07T17:35:00.880Z,15.31
2019-04-07T17:37:31.958Z,15.23
2019-04-07T17:40:13.129Z,15.20
2019-04-07T17:42:42.773Z,15.15
2019-04-07T17:45:35.379Z,15.06
2019-04-07T17:48:52.805Z,15.01
2019-04-07T17:51:28.687Z,14.88
2019-04-07T17:54:22.801Z,14.80
2019-04-07T17:57:01.311Z,14.68
2019-04-07T17:59:59.120Z,14.60
2019-04-07T18:03:06.087Z,14.54
2019-04-07T18:05:47.012Z,14.43
2019-04-07T18:08:33.128Z,14.35
2019-04-07T18:11:18.974Z,14.29
2019-04-07T18:14:08.507Z,14.19
2019-04-07T18:16:54.769Z,14.08
2019-04-07T18:19:43.199Z,14.02
2019-04-07T18:22:35.898Z,13.93
2019-04-07T18:25:26.213Z,13.84
2019-04-07T18:28:11.023Z,13.76
2019-04-07T18:31:03.083Z,13.74
2019-04-07T18:33:55.011Z,13.68
2019-04-07T18:36:40.584Z,13.57
2019-04-07T18:39:27.892Z,13.51
2019-04-07T18:42:10.709Z,13.40
2019-04-07T18:44:59.553Z,13.27
2019-04-07T18:47:59.284Z,13.14
2019-04-07T18:51:01.022Z,13.03
2019-04-07T18:53:50.574Z,12.96
2019-04-07T18:56:40.350Z,12.78
2019-04-07T18:59:22.261Z,12.80
2019-04-07T19:02:13.159Z,12.77
2019-04-07T19:05:08.166Z,12.69
2019-04-07T19:07:47.191Z,12.60
2019-04-07T19:10:35.590Z,12.53
2019-04-07T19:13:23.536Z,12.55
2019-04-07T19:16:11.072Z,12.48
2019-04-07T19:18:52.628Z,12.46
2019-04-07T19:21:38.499Z,12.42
2019-04-07T19:24:35.338Z,12.29
2019-04-07T19:27:42.670Z,12.31
2019-04-07T19:30:43.289Z,12.23
2019-04-07T19:33:49.410Z,12.13
2019-04-07T19:36:46.595Z,12.06
2019-04-07T19:39:37.256Z,11.99
2019-04-07T19:42:39.937Z,11.94
2019-04-07T19:45:37.047Z,11.89
2019-04-07T19:48:25.429Z,11.81
2019-04-07T19:51:22.655Z,11.75
2019-04-07T19:54:13.538Z,11.74
2019-04-07T19:57:05.135Z,11.69
2019-04-07T19:59:54.998Z,11.59
2019-04-07T20:02:35.943Z,11.58
2019-04-07T20:05:28.883Z,11.56
2019-04-07T20:08:32.440Z,11.53
2019-04-07T20:11:27.713Z,11.51
2019-04-07T20:14:26.282Z,11.41
2019-04-07T20:17:19.724Z,11.37
2019-04-07T20:20:14.312Z,11.32
2019-04-07T20:23:02.171Z,11.24
2019-04-07T20:26:10.203Z,11.16
2019-04-07T20:29:06.537Z,11.17
2019-04-07T20:32:00.576Z,11.00
2019-04-07T20:34:48.632Z,10.97
2019-04-07T20:37:37.860Z,10.98
2019-04-07T20:40:35.905Z,10.95
2019-04-07T20:43:10.112Z,10.87
2019-04-07T20:45:53.801Z,10.87
2019-04-07T20:48:39.950Z,10.78
2019-04-07T20:51:48.042Z,10.68
2019-04-07T20:54:23.749Z,10.63
2019-04-07T20:57:07.597Z,10.63
2019-04-07T20:59:54.182Z,10.63
2019-04-07T21:02:48.723Z,10.49
2019-04-07T21:05:38.221Z,10.51
2019-04-07T21:08:39.977Z,10.49
2019-04-07T21:11:31.058Z,10.48
2019-04-07T21:14:16.320Z,10.44
2019-04-07T21:17:08.505Z,10.39
2019-04-07T21:19:57.521Z,10.32
2019-04-07T21:23:05.229Z,10.31
2019-04-07T21:25:56.029Z,10.26
2019-04-07T21:28:48.966Z,10.23
2019-04-07T21:31:38.492Z,10.13
2019-04-07T21:34:21.239Z,10.01
2019-04-07T21:37:02.508Z,9.92
2019-04-07T21:39:51.618Z,9.91
2019-04-07T21:42:54.092Z,9.90
2019-04-07T21:45:43.671Z,9.86
2019-04-07T21:48:18.150Z,9.87
2019-04-07T21:50:55.110Z,9.82
2019-04-07T21:53:34.711Z,9.76
2019-04-07T21:56:26.933Z,9.70
2019-04-07T21:59:26.741Z,9.74
2019-04-07T22:02:33.433Z,9.68
2019-04-07T22:05:37.059Z,9.62
2019-04-07T22:08:15.977Z,9.58
2019-04-07T22:10:47.886Z,9.54
2019-04-07T22:13:19.537Z,9.51
2019-04-07T22:15:56.251Z,9.55
2019-04-07T22:18:23.660Z,9.54
2019-04-07T22:20:56.059Z,9.49
2019-04-07T22:23:29.512Z,9.47
2019-04-07T22:25:59.147Z,9.47
2019-04-07T22:28:30.355Z,9.48
2019-04-07T22:31:02.009Z,9.47
2019-04-07T22:33:33.747Z,9.44
2019-04-07T22:36:05.863Z,9.36
2019-04-07T22:38:36.433Z,9.33
2019-04-07T22:41:08.865Z,9.31
2019-04-07T22:43:39.506Z,9.23
2019-04-07T22:46:17.568Z,9.18
2019-04-07T22:48:42.349Z,9.15
2019-04-07T22:51:13.742Z,9.16
2019-04-07T22:53:45.483Z,9.17
2019-04-07T22:56:16.140Z,9.00
2019-04-07T22:58:46.691Z,8.98
2019-04-07T23:01:17.287Z,9.00
2019-04-07T23:03:47.828Z,9.04
2019-04-07T23:06:18.969Z,9.09
2019-04-07T23:08:49.802Z,9.01
2019-04-07T23:11:22.524Z,8.99
2019-04-07T23:13:53.393Z,9.01
2019-04-07T23:16:24.493Z,8.98
2019-04-07T23:18:55.075Z,8.93
2019-04-07T23:21:26.645Z,8.90
2019-04-07T23:23:57.711Z,8.89
2019-04-07T23:26:28.628Z,8.95
2019-04-07T23:28:59.244Z,8.97
2019-04-07T23:31:32.045Z,8.94
2019-04-07T23:34:02.884Z,8.97
2019-04-07T23:36:34.042Z,8.91
2019-04-07T23:39:08.715Z,8.86
2019-04-07T23:41:39.450Z,8.80
2019-04-07T23:44:10.052Z,8.72
2019-04-07T23:46:41.392Z,8.69
2019-04-07T23:49:13.083Z,8.69
2019-04-07T23:51:43.764Z,8.72
2019-04-07T23:54:18.365Z,8.71
2019-04-07T23:56:49.861Z,8.68
2019-04-07T23:59:20.729Z,8.64
